KSVC/SVC METAR and TAF weather

Enter ICAO airport designator
Station Type Date Time Source
KSVC METAR 2018/12/11 20:15 UTC NOAA

KSVC 112015Z AUTO 17004KT 10SM CLR 10/00 A3016 RMK AO2 T01030000


Station Type Date Time Source
KSVC Decoded METAR 2018/12/11 20:15 UTC NOAA

Silver City / Grant, NM, United States (KSVC) 32-38N 108-09W
Dec 11, 2018 - 03:15 PM EST / 2018.12.11 2015 UTC
Wind: from the S (170 degrees) at 5 MPH (4 KT):0
Visibility: 10 mile(s):0
Sky conditions: clear
Temperature: 50.5 F (10.3 C)
Dew Point: 32.0 F (0.0 C)
Relative Humidity: 48%
Pressure (altimeter): 30.16 in. Hg (1021 hPa)
ob: KSVC 112015Z AUTO 17004KT 10SM CLR 10/00 A3016 RMK AO2 T01030000
cycle: 20

Station Type Date Time Source
KSVC TAF UTC NOAA

Error!


Example: see airport list